Detall de PIREP

Printer-friendly versionPDF version

[2015/12/22 09:32:00]
Flight IATA:CT1004
Pilot Number:016
Company ICAO:CAT
Aircraft Type:B738/F
PAX:135
Departing Airport: LEMH
Destination Airport: LEBL
Alternate Airport:LEPA
Online: VATSIM
Route:LUNIK A25 OSTUR
Flight Level:F180
No Slew and time accel
No pause
Crash detect
Detect pilot in Cockpit between each 30 and 45 minutes
09:32 Zero fuel Weight: 117183 Lbs, Fuel Weight: 11794 Lbs
09:32 VATSIM:LEMH 221600Z 17004KT 9999 FEW025 15/12 Q1034
09:32 VATSIM:LEBL 221600Z 23011KT 8000 FEW018 14/12 Q1032 NOSIG
09:32 Parking Brakes off
09:38 Take-off
09:38 Take off Weight: 128301 Lbs
09:38 Wind: 170º @ 004 Knots Heading: 188º
09:38 POS N39º 51´ 34´´ E004º 13´ 04´´
09:38 Flaps:3 at 160 Knots
09:38 Gear Up: 162 Knots
09:39 Flaps:2 at 245 Knots
09:39 Flaps:1 at 246 Knots
09:39 Flaps:0 at 249 Knots
09:44 TOC
09:44 Fuel Weight: 9512 Lb
09:44 TOD
09:44 Fuel Weight: 9479 Lb
09:45 TOC
09:45 Fuel Weight: 9416 Lb
09:52 TOD
09:52 Fuel Weight: 8684 Lb
09:53 Wind:053º@015 Knots Heading: 314º Ground Speed: 332 Knots Altitude 18011 ft
10:00 Flaps:1 at 248 Knots
10:01 Flaps:2 at 221 Knots
10:02 Flaps:3 at 202 Knots
10:05 Flaps:4 at 193 Knots
10:06 Flaps:5 at 179 Knots
10:06 Gear Down: 180 Knots
10:07 Flaps:7 at 148 Knots
10:07 Flaps:8 at 136 Knots
10:08 Wind:226º@013 Knots Heading: 244º Ground Speed: 125 Knots Altitude 1919 ft
10:10 TouchDown:Rate -239 ft/min Speed: 128 Knots
10:10 VATSIM:LEBL 221630Z 23010KT 7000 FEW016 14/11 Q1032 NOSIG
10:10 Land
10:10 Wind:230º@009 Knots
10:10 Heading: 244º
10:10 Flight Duration: 00:32
10:10 Landing Weight: 124836 Lbs
10:10 POS N41º 18´ 02´´ E002º 05´ 19´´
10:14 Parking brakes on
10:14 Block to Block Duration: 00:42
10:14 Final Fuel: 7323 Lbls
10:14 Spent Fuel: 4470 Lbls
10:14 Flight Length: 151 NM
10:14 TOD Land Length: 70 NM

Exportar CSV

Powered by Drupal - Modified by Danger4k